sensor_id;sensor_type;location;lat;lon;timestamp;temperature;humidity
32107;DHT22;18622;51.998;10.440;2022-11-20T06:01:22;-3.20;99.90
32107;DHT22;18622;51.998;10.440;2022-11-20T06:03:50;-3.10;99.90
32107;DHT22;18622;51.998;10.440;2022-11-20T06:06:19;-3.10;99.90
32107;DHT22;18622;51.998;10.440;2022-11-20T06:08:47;-3.00;99.90
32107;DHT22;18622;51.998;10.440;2022-11-20T06:11:15;-3.00;99.90
32107;DHT22;18622;51.998;10.440;2022-11-20T06:13:43;-2.80;99.90
32107;DHT22;18622;51.998;10.440;2022-11-20T06:16:13;-2.70;99.90
32107;DHT22;18622;51.998;10.440;2022-11-20T06:18:41;-2.60;99.90
32107;DHT22;18622;51.998;10.440;2022-11-20T06:21:14;-2.60;99.90
32107;DHT22;18622;51.998;10.440;2022-11-20T06:23:43;-2.60;99.90
32107;DHT22;18622;51.998;10.440;2022-11-20T06:26:12;-2.70;99.90
32107;DHT22;18622;51.998;10.440;2022-11-20T06:28:40;-2.70;99.90
32107;DHT22;18622;51.998;10.440;2022-11-20T06:31:09;-2.70;99.90
32107;DHT22;18622;51.998;10.440;2022-11-20T06:33:37;-2.70;99.90
32107;DHT22;18622;51.998;10.440;2022-11-20T06:36:05;-2.70;99.90
32107;DHT22;18622;51.998;10.440;2022-11-20T06:38:33;-2.70;99.90
32107;DHT22;18622;51.998;10.440;2022-11-20T06:41:01;-2.70;99.90
32107;DHT22;18622;51.998;10.440;2022-11-20T06:43:30;-2.70;99.90
32107;DHT22;18622;51.998;10.440;2022-11-20T06:45:58;-2.60;99.90
32107;DHT22;18622;51.998;10.440;2022-11-20T06:48:27;-2.50;99.90
32107;DHT22;18622;51.998;10.440;2022-11-20T06:50:55;-2.40;99.90
32107;DHT22;18622;51.998;10.440;2022-11-20T06:53:23;-2.40;99.90
32107;DHT22;18622;51.998;10.440;2022-11-20T06:55:52;-2.40;99.90
32107;DHT22;18622;51.998;10.440;2022-11-20T06:58:19;-2.40;99.90
32107;DHT22;18622;51.998;10.440;2022-11-20T07:00:47;-2.30;99.90
32107;DHT22;18622;51.998;10.440;2022-11-20T07:03:15;-2.30;99.90
32107;DHT22;18622;51.998;10.440;2022-11-20T07:05:43;-2.30;99.90
32107;DHT22;18622;51.998;10.440;2022-11-20T07:08:12;-2.10;99.90
32107;DHT22;18622;51.998;10.440;2022-11-20T07:10:40;-1.90;99.90
32107;DHT22;18622;51.998;10.440;2022-11-20T07:13:08;-1.70;99.80
32107;DHT22;18622;51.998;10.440;2022-11-20T07:15:35;-1.60;99.50
32107;DHT22;18622;51.998;10.440;2022-11-20T07:18:03;-1.50;99.30
32107;DHT22;18622;51.998;10.440;2022-11-20T07:20:31;-1.50;99.30
32107;DHT22;18622;51.998;10.440;2022-11-20T07:22:59;-1.40;99.20
32107;DHT22;18622;51.998;10.440;2022-11-20T07:25:27;-1.40;99.30
32107;DHT22;18622;51.998;10.440;2022-11-20T07:27:58;-1.30;99.10
32107;DHT22;18622;51.998;10.440;2022-11-20T07:30:27;-1.30;98.90
32107;DHT22;18622;51.998;10.440;2022-11-20T07:32:56;-1.20;98.70
32107;DHT22;18622;51.998;10.440;2022-11-20T07:35:24;-1.20;98.50
32107;DHT22;18622;51.998;10.440;2022-11-20T07:37:52;-1.30;98.40
32107;DHT22;18622;51.998;10.440;2022-11-20T07:40:19;-1.30;98.50
32107;DHT22;18622;51.998;10.440;2022-11-20T07:42:54;-1.30;98.60
32107;DHT22;18622;51.998;10.440;2022-11-20T07:45:22;-1.20;98.80
32107;DHT22;18622;51.998;10.440;2022-11-20T07:47:50;-1.20;98.60
32107;DHT22;18622;51.998;10.440;2022-11-20T07:50:19;-1.10;98.50
32107;DHT22;18622;51.998;10.440;2022-11-20T07:52:46;-1.10;98.50
32107;DHT22;18622;51.998;10.440;2022-11-20T07:55:14;-1.10;98.60
32107;DHT22;18622;51.998;10.440;2022-11-20T07:57:42;-1.10;98.60
32107;DHT22;18622;51.998;10.440;2022-11-20T08:00:11;-1.10;98.60
32107;DHT22;18622;51.998;10.440;2022-11-20T08:02:42;-1.00;98.60
32107;DHT22;18622;51.998;10.440;2022-11-20T08:05:10;-1.00;98.50
32107;DHT22;18622;51.998;10.440;2022-11-20T08:07:38;-0.90;97.90
32107;DHT22;18622;51.998;10.440;2022-11-20T08:10:07;-0.70;97.10
32107;DHT22;18622;51.998;10.440;2022-11-20T08:12:35;-0.50;96.60
32107;DHT22;18622;51.998;10.440;2022-11-20T08:15:21;-0.40;96.30
32107;DHT22;18622;51.998;10.440;2022-11-20T08:17:48;-0.30;96.00
32107;DHT22;18622;51.998;10.440;2022-11-20T08:20:16;-0.10;95.90
32107;DHT22;18622;51.998;10.440;2022-11-20T08:22:44;-0.10;95.70
32107;DHT22;18622;51.998;10.440;2022-11-20T08:25:12;0.10;95.40
32107;DHT22;18622;51.998;10.440;2022-11-20T08:27:40;0.30;95.50
32107;DHT22;18622;51.998;10.440;2022-11-20T08:30:08;0.40;95.00
32107;DHT22;18622;51.998;10.440;2022-11-20T08:32:36;0.60;94.70
32107;DHT22;18622;51.998;10.440;2022-11-20T08:35:04;0.90;94.50
32107;DHT22;18622;51.998;10.440;2022-11-20T08:37:32;1.00;94.40
32107;DHT22;18622;51.998;10.440;2022-11-20T08:40:00;1.30;94.40
32107;DHT22;18622;51.998;10.440;2022-11-20T08:42:28;1.60;94.20
32107;DHT22;18622;51.998;10.440;2022-11-20T08:44:55;2.00;93.80
32107;DHT22;18622;51.998;10.440;2022-11-20T08:47:23;2.40;93.60
32107;DHT22;18622;51.998;10.440;2022-11-20T08:49:51;2.80;92.90
32107;DHT22;18622;51.998;10.440;2022-11-20T08:52:19;3.00;92.00
32107;DHT22;18622;51.998;10.440;2022-11-20T08:54:46;3.20;90.80
32107;DHT22;18622;51.998;10.440;2022-11-20T08:57:14;3.40;90.80
32107;DHT22;18622;51.998;10.440;2022-11-20T08:59:42;3.60;90.70
32107;DHT22;18622;51.998;10.440;2022-11-20T09:02:10;3.80;89.20
32107;DHT22;18622;51.998;10.440;2022-11-20T09:04:38;4.00;89.90
32107;DHT22;18622;51.998;10.440;2022-11-20T09:07:06;4.30;88.10
32107;DHT22;18622;51.998;10.440;2022-11-20T09:09:34;4.40;87.10
32107;DHT22;18622;51.998;10.440;2022-11-20T09:12:02;4.50;88.30
32107;DHT22;18622;51.998;10.440;2022-11-20T09:14:30;4.70;88.00
32107;DHT22;18622;51.998;10.440;2022-11-20T09:16:58;4.70;85.10
32107;DHT22;18622;51.998;10.440;2022-11-20T09:19:25;4.70;83.00
32107;DHT22;18622;51.998;10.440;2022-11-20T09:21:53;4.60;82.30
32107;DHT22;18622;51.998;10.440;2022-11-20T09:24:21;4.30;81.10
32107;DHT22;18622;51.998;10.440;2022-11-20T09:26:49;4.10;82.30
32107;DHT22;18622;51.998;10.440;2022-11-20T09:29:17;3.90;83.60
32107;DHT22;18622;51.998;10.440;2022-11-20T09:31:45;3.90;83.70
32107;DHT22;18622;51.998;10.440;2022-11-20T09:34:12;3.80;83.10
32107;DHT22;18622;51.998;10.440;2022-11-20T09:36:40;3.70;83.80
32107;DHT22;18622;51.998;10.440;2022-11-20T09:39:08;3.70;82.80
32107;DHT22;18622;51.998;10.440;2022-11-20T09:53:04;2.80;84.90
32107;DHT22;18622;51.998;10.440;2022-11-20T09:55:31;2.70;85.20
32107;DHT22;18622;51.998;10.440;2022-11-20T09:57:59;2.60;84.90
32107;DHT22;18622;51.998;10.440;2022-11-20T10:00:28;2.50;85.40
32107;DHT22;18622;51.998;10.440;2022-11-20T10:03:06;2.50;86.00
32107;DHT22;18622;51.998;10.440;2022-11-20T10:05:47;2.40;86.60
32107;DHT22;18622;51.998;10.440;2022-11-20T10:08:30;2.40;86.70
32107;DHT22;18622;51.998;10.440;2022-11-20T10:11:13;2.40;87.20
32107;DHT22;18622;51.998;10.440;2022-11-20T10:19:35;2.60;88.10
32107;DHT22;18622;51.998;10.440;2022-11-20T10:24:55;2.70;86.50
32107;DHT22;18622;51.998;10.440;2022-11-20T10:27:39;2.80;85.70
32107;DHT22;18622;51.998;10.440;2022-11-20T10:30:09;2.80;85.10
32107;DHT22;18622;51.998;10.440;2022-11-20T10:32:42;3.00;85.20
32107;DHT22;18622;51.998;10.440;2022-11-20T10:35:22;3.00;84.50
32107;DHT22;18622;51.998;10.440;2022-11-20T10:37:55;3.10;85.00
32107;DHT22;18622;51.998;10.440;2022-11-20T10:40:28;3.10;85.50
32107;DHT22;18622;51.998;10.440;2022-11-20T10:43:00;3.10;86.10
32107;DHT22;18622;51.998;10.440;2022-11-20T10:45:36;3.10;86.60
32107;DHT22;18622;51.998;10.440;2022-11-20T10:48:21;3.10;87.10
32107;DHT22;18622;51.998;10.440;2022-11-20T10:53:51;3.00;87.50
32107;DHT22;18622;51.998;10.440;2022-11-20T10:56:36;3.20;88.60
32107;DHT22;18622;51.998;10.440;2022-11-20T11:01:55;6.10;82.50
32107;DHT22;18622;51.998;10.440;2022-11-20T11:09:55;9.20;70.80
32107;DHT22;18622;51.998;10.440;2022-11-20T11:12:25;9.80;67.20
32107;DHT22;18622;51.998;10.440;2022-11-20T11:14:56;10.20;64.40
32107;DHT22;18622;51.998;10.440;2022-11-20T11:17:27;10.70;64.10
32107;DHT22;18622;51.998;10.440;2022-11-20T11:19:59;11.40;62.20
32107;DHT22;18622;51.998;10.440;2022-11-20T11:22:29;12.00;60.80
32107;DHT22;18622;51.998;10.440;2022-11-20T11:24:57;12.60;54.30
32107;DHT22;18622;51.998;10.440;2022-11-20T11:27:25;12.40;54.00
32107;DHT22;18622;51.998;10.440;2022-11-20T11:30:14;11.90;53.60
32107;DHT22;18622;51.998;10.440;2022-11-20T11:32:42;11.40;54.00
32107;DHT22;18622;51.998;10.440;2022-11-20T11:35:25;11.00;56.90
32107;DHT22;18622;51.998;10.440;2022-11-20T11:38:01;10.70;59.00
32107;DHT22;18622;51.998;10.440;2022-11-20T11:40:24;10.90;61.30
32107;DHT22;18622;51.998;10.440;2022-11-20T11:43:02;11.80;60.50
32107;DHT22;18622;51.998;10.440;2022-11-20T11:45:26;13.00;58.30
32107;DHT22;18622;51.998;10.440;2022-11-20T11:47:58;13.60;55.00
32107;DHT22;18622;51.998;10.440;2022-11-20T11:50:28;13.40;51.50
32107;DHT22;18622;51.998;10.440;2022-11-20T11:53:14;13.10;50.70
32107;DHT22;18622;51.998;10.440;2022-11-20T11:56:05;13.10;50.70
32107;DHT22;18622;51.998;10.440;2022-11-20T11:58:47;13.40;51.00
32107;DHT22;18622;51.998;10.440;2022-11-20T12:01:31;14.10;50.50
32107;DHT22;18622;51.998;10.440;2022-11-20T12:04:05;14.80;48.90
32107;DHT22;18622;51.998;10.440;2022-11-20T12:06:35;15.30;45.60
32107;DHT22;18622;51.998;10.440;2022-11-20T12:09:08;15.30;44.90
32107;DHT22;18622;51.998;10.440;2022-11-20T12:11:46;15.30;45.40
32107;DHT22;18622;51.998;10.440;2022-11-20T12:14:19;15.40;44.20
32107;DHT22;18622;51.998;10.440;2022-11-20T12:16:50;15.50;44.30
32107;DHT22;18622;51.998;10.440;2022-11-20T12:19:19;15.70;43.80
32107;DHT22;18622;51.998;10.440;2022-11-20T12:30:04;16.90;41.10
32107;DHT22;18622;51.998;10.440;2022-11-20T12:32:57;17.00;40.20
32107;DHT22;18622;51.998;10.440;2022-11-20T12:38:35;16.40;37.00
32107;DHT22;18622;51.998;10.440;2022-11-20T12:41:23;15.70;38.20
32107;DHT22;18622;51.998;10.440;2022-11-20T12:44:14;15.40;39.10
32107;DHT22;18622;51.998;10.440;2022-11-20T12:47:16;15.40;38.20
32107;DHT22;18622;51.998;10.440;2022-11-20T12:49:47;15.00;39.00
32107;DHT22;18622;51.998;10.440;2022-11-20T12:55:17;14.40;39.00
32107;DHT22;18622;51.998;10.440;2022-11-20T13:00:25;14.20;38.80
32107;DHT22;18622;51.998;10.440;2022-11-20T13:08:39;13.70;40.80
32107;DHT22;18622;51.998;10.440;2022-11-20T13:11:37;13.80;41.20
32107;DHT22;18622;51.998;10.440;2022-11-20T13:14:26;13.80;38.90
32107;DHT22;18622;51.998;10.440;2022-11-20T13:17:05;11.80;41.00
32107;DHT22;18622;51.998;10.440;2022-11-20T13:19:32;9.70;44.50
32107;DHT22;18622;51.998;10.440;2022-11-20T13:22:00;8.20;47.40
32107;DHT22;18622;51.998;10.440;2022-11-20T13:24:30;7.00;50.60
32107;DHT22;18622;51.998;10.440;2022-11-20T13:29:36;5.50;54.60
32107;DHT22;18622;51.998;10.440;2022-11-20T13:32:15;5.00;56.40
32107;DHT22;18622;51.998;10.440;2022-11-20T13:34:58;4.80;58.00
32107;DHT22;18622;51.998;10.440;2022-11-20T13:37:34;4.90;59.90
32107;DHT22;18622;51.998;10.440;2022-11-20T13:40:19;5.50;59.60
32107;DHT22;18622;51.998;10.440;2022-11-20T13:42:45;6.10;58.00
32107;DHT22;18622;51.998;10.440;2022-11-20T13:45:25;6.40;56.70
32107;DHT22;18622;51.998;10.440;2022-11-20T13:47:55;6.30;57.70
32107;DHT22;18622;51.998;10.440;2022-11-20T13:50:32;6.10;58.50
32107;DHT22;18622;51.998;10.440;2022-11-20T13:53:12;6.00;59.40
32107;DHT22;18622;51.998;10.440;2022-11-20T13:55:54;6.00;60.30
32107;DHT22;18622;51.998;10.440;2022-11-20T14:01:11;6.20;60.80
32107;DHT22;18622;51.998;10.440;2022-11-20T14:03:40;6.10;60.80
32107;DHT22;18622;51.998;10.440;2022-11-20T14:06:28;6.00;61.20
32107;DHT22;18622;51.998;10.440;2022-11-20T14:08:58;5.90;61.60
32107;DHT22;18622;51.998;10.440;2022-11-20T14:11:28;5.80;62.10
32107;DHT22;18622;51.998;10.440;2022-11-20T14:14:02;5.80;62.70
32107;DHT22;18622;51.998;10.440;2022-11-20T14:16:35;5.80;63.10
32107;DHT22;18622;51.998;10.440;2022-11-20T14:19:24;5.60;63.20
32107;DHT22;18622;51.998;10.440;2022-11-20T14:22:09;5.40;63.60
32107;DHT22;18622;51.998;10.440;2022-11-20T14:24:37;5.20;64.30
32107;DHT22;18622;51.998;10.440;2022-11-20T14:27:10;5.00;65.40
32107;DHT22;18622;51.998;10.440;2022-11-20T14:29:36;4.80;65.80
32107;DHT22;18622;51.998;10.440;2022-11-20T14:32:04;4.70;66.70
32107;DHT22;18622;51.998;10.440;2022-11-20T14:34:35;4.60;66.90
32107;DHT22;18622;51.998;10.440;2022-11-20T14:37:04;4.50;67.80
32107;DHT22;18622;51.998;10.440;2022-11-20T14:39:37;4.40;67.90
32107;DHT22;18622;51.998;10.440;2022-11-20T14:42:17;4.30;68.60
32107;DHT22;18622;51.998;10.440;2022-11-20T14:44:45;4.20;68.80
32107;DHT22;18622;51.998;10.440;2022-11-20T14:47:16;4.00;69.10
32107;DHT22;18622;51.998;10.440;2022-11-20T14:49:43;3.90;69.60
32107;DHT22;18622;51.998;10.440;2022-11-20T14:52:19;3.90;70.30
32107;DHT22;18622;51.998;10.440;2022-11-20T14:54:54;3.70;70.80
32107;DHT22;18622;51.998;10.440;2022-11-20T14:57:28;3.60;71.50
32107;DHT22;18622;51.998;10.440;2022-11-20T15:02:43;3.30;72.60
32107;DHT22;18622;51.998;10.440;2022-11-20T15:05:11;3.10;72.40
32107;DHT22;18622;51.998;10.440;2022-11-20T15:07:41;2.90;72.80
32107;DHT22;18622;51.998;10.440;2022-11-20T15:10:24;2.80;73.80
32107;DHT22;18622;51.998;10.440;2022-11-20T15:13:01;2.60;74.50
32107;DHT22;18622;51.998;10.440;2022-11-20T15:15:48;2.50;75.40
32107;DHT22;18622;51.998;10.440;2022-11-20T15:18:39;2.40;76.40
32107;DHT22;18622;51.998;10.440;2022-11-20T15:20:47;2.30;77.40
32107;DHT22;18622;51.998;10.440;2022-11-20T15:23:16;2.20;77.80
32107;DHT22;18622;51.998;10.440;2022-11-20T15:25:48;2.10;77.80
32107;DHT22;18622;51.998;10.440;2022-11-20T15:28:24;2.00;77.90
32107;DHT22;18622;51.998;10.440;2022-11-20T15:30:52;1.90;78.90
32107;DHT22;18622;51.998;10.440;2022-11-20T15:33:20;1.80;79.20
32107;DHT22;18622;51.998;10.440;2022-11-20T15:35:48;1.70;79.70
32107;DHT22;18622;51.998;10.440;2022-11-20T15:38:16;1.60;79.80
32107;DHT22;18622;51.998;10.440;2022-11-20T15:40:43;1.50;80.30
32107;DHT22;18622;51.998;10.440;2022-11-20T15:43:11;1.40;80.50
32107;DHT22;18622;51.998;10.440;2022-11-20T15:45:42;1.40;80.90
32107;DHT22;18622;51.998;10.440;2022-11-20T15:48:17;1.40;81.40
32107;DHT22;18622;51.998;10.440;2022-11-20T15:50:50;1.30;82.10
32107;DHT22;18622;51.998;10.440;2022-11-20T15:53:18;1.30;82.60
32107;DHT22;18622;51.998;10.440;2022-11-20T15:55:46;1.20;83.20
32107;DHT22;18622;51.998;10.440;2022-11-20T15:58:14;1.20;83.60
32107;DHT22;18622;51.998;10.440;2022-11-20T16:00:43;1.10;83.50
32107;DHT22;18622;51.998;10.440;2022-11-20T16:03:12;1.00;84.10
32107;DHT22;18622;51.998;10.440;2022-11-20T16:05:40;1.00;84.70
32107;DHT22;18622;51.998;10.440;2022-11-20T16:08:07;0.90;85.50
32107;DHT22;18622;51.998;10.440;2022-11-20T16:10:35;0.80;86.30
32107;DHT22;18622;51.998;10.440;2022-11-20T16:13:03;0.80;87.20
32107;DHT22;18622;51.998;10.440;2022-11-20T16:15:55;0.80;88.00
32107;DHT22;18622;51.998;10.440;2022-11-20T16:18:23;0.70;88.40
32107;DHT22;18622;51.998;10.440;2022-11-20T16:20:53;0.80;88.60
32107;DHT22;18622;51.998;10.440;2022-11-20T16:23:21;0.70;88.90
32107;DHT22;18622;51.998;10.440;2022-11-20T16:25:49;0.70;89.20
32107;DHT22;18622;51.998;10.440;2022-11-20T16:28:18;0.70;89.30
32107;DHT22;18622;51.998;10.440;2022-11-20T16:30:46;0.70;89.40
32107;DHT22;18622;51.998;10.440;2022-11-20T16:33:16;0.70;89.60
32107;DHT22;18622;51.998;10.440;2022-11-20T16:35:44;0.70;89.90
32107;DHT22;18622;51.998;10.440;2022-11-20T16:38:12;0.70;90.00
32107;DHT22;18622;51.998;10.440;2022-11-20T16:40:40;0.60;90.40
32107;DHT22;18622;51.998;10.440;2022-11-20T16:43:12;0.70;91.10
32107;DHT22;18622;51.998;10.440;2022-11-20T16:45:42;0.70;90.70
32107;DHT22;18622;51.998;10.440;2022-11-20T16:48:12;0.70;90.80
32107;DHT22;18622;51.998;10.440;2022-11-20T16:50:49;0.60;90.70
32107;DHT22;18622;51.998;10.440;2022-11-20T16:53:18;0.60;90.80
32107;DHT22;18622;51.998;10.440;2022-11-20T16:55:46;0.50;91.10
32107;DHT22;18622;51.998;10.440;2022-11-20T16:58:14;0.40;91.20
32107;DHT22;18622;51.998;10.440;2022-11-20T17:00:42;0.30;91.10
32107;DHT22;18622;51.998;10.440;2022-11-20T17:03:11;0.30;91.10
32107;DHT22;18622;51.998;10.440;2022-11-20T17:05:39;0.20;91.20
32107;DHT22;18622;51.998;10.440;2022-11-20T17:08:06;0.20;91.50
32107;DHT22;18622;51.998;10.440;2022-11-20T17:10:34;0.10;91.60
32107;DHT22;18622;51.998;10.440;2022-11-20T17:13:02;0.10;91.70
32107;DHT22;18622;51.998;10.440;2022-11-20T17:15:30;0.00;92.00
32107;DHT22;18622;51.998;10.440;2022-11-20T17:17:58;0.00;92.10
32107;DHT22;18622;51.998;10.440;2022-11-20T17:20:27;0.00;92.10
32107;DHT22;18622;51.998;10.440;2022-11-20T17:22:56;-0.10;92.20
32107;DHT22;18622;51.998;10.440;2022-11-20T17:25:24;-0.10;92.20
32107;DHT22;18622;51.998;10.440;2022-11-20T17:27:52;-0.10;92.40
32107;DHT22;18622;51.998;10.440;2022-11-20T17:30:20;-0.20;92.50
32107;DHT22;18622;51.998;10.440;2022-11-20T17:32:48;-0.20;92.70
32107;DHT22;18622;51.998;10.440;2022-11-20T17:35:15;-0.20;93.10
32107;DHT22;18622;51.998;10.440;2022-11-20T17:37:43;-0.20;93.10
32107;DHT22;18622;51.998;10.440;2022-11-20T17:40:11;-0.20;93.20
32107;DHT22;18622;51.998;10.440;2022-11-20T17:42:39;-0.20;93.40
32107;DHT22;18622;51.998;10.440;2022-11-20T17:45:07;-0.20;93.60
32107;DHT22;18622;51.998;10.440;2022-11-20T17:47:35;-0.20;93.90
32107;DHT22;18622;51.998;10.440;2022-11-20T17:50:03;-0.30;94.00
32107;DHT22;18622;51.998;10.440;2022-11-20T17:52:31;-0.30;94.30
32107;DHT22;18622;51.998;10.440;2022-11-20T17:54:59;-0.30;94.30
32107;DHT22;18622;51.998;10.440;2022-11-20T17:57:27;-0.40;94.20
32107;DHT22;18622;51.998;10.440;2022-11-20T18:00:13;-0.40;94.40
32107;DHT22;18622;51.998;10.440;2022-11-20T18:02:42;-0.40;94.60
32107;DHT22;18622;51.998;10.440;2022-11-20T18:05:10;-0.40;94.80
32107;DHT22;18622;51.998;10.440;2022-11-20T18:07:39;-0.40;94.80
32107;DHT22;18622;51.998;10.440;2022-11-20T18:10:07;-0.30;94.90
32107;DHT22;18622;51.998;10.440;2022-11-20T18:12:35;-0.20;95.10
32107;DHT22;18622;51.998;10.440;2022-11-20T18:15:03;-0.10;95.30
32107;DHT22;18622;51.998;10.440;2022-11-20T18:17:31;0.00;95.60
32107;DHT22;18622;51.998;10.440;2022-11-20T18:19:58;0.10;95.70
32107;DHT22;18622;51.998;10.440;2022-11-20T18:22:26;0.20;95.90
32107;DHT22;18622;51.998;10.440;2022-11-20T18:24:54;0.20;95.90
32107;DHT22;18622;51.998;10.440;2022-11-20T18:27:22;0.30;96.00
32107;DHT22;18622;51.998;10.440;2022-11-20T18:29:50;0.40;96.00
32107;DHT22;18622;51.998;10.440;2022-11-20T18:32:19;0.40;96.00
32107;DHT22;18622;51.998;10.440;2022-11-20T18:34:47;0.50;96.10
32107;DHT22;18622;51.998;10.440;2022-11-20T18:37:15;0.50;96.10
32107;DHT22;18622;51.998;10.440;2022-11-20T18:39:43;0.60;96.20
32107;DHT22;18622;51.998;10.440;2022-11-20T18:42:14;0.70;96.20
32107;DHT22;18622;51.998;10.440;2022-11-20T18:45:00;0.70;96.20
32107;DHT22;18622;51.998;10.440;2022-11-20T18:47:33;0.80;96.20
32107;DHT22;18622;51.998;10.440;2022-11-20T18:50:02;0.90;96.30
32107;DHT22;18622;51.998;10.440;2022-11-20T18:52:32;1.00;96.30
32107;DHT22;18622;51.998;10.440;2022-11-20T18:55:00;1.00;96.30
32107;DHT22;18622;51.998;10.440;2022-11-20T18:57:28;1.10;96.30
32107;DHT22;18622;51.998;10.440;2022-11-20T18:59:56;1.10;96.40
32107;DHT22;18622;51.998;10.440;2022-11-20T19:02:27;1.20;96.60
32107;DHT22;18622;51.998;10.440;2022-11-20T19:04:55;1.30;96.60
32107;DHT22;18622;51.998;10.440;2022-11-20T19:07:24;1.30;96.50
32107;DHT22;18622;51.998;10.440;2022-11-20T19:09:52;1.40;96.60
32107;DHT22;18622;51.998;10.440;2022-11-20T19:12:20;1.40;96.40
32107;DHT22;18622;51.998;10.440;2022-11-20T19:14:48;1.40;96.40
32107;DHT22;18622;51.998;10.440;2022-11-20T19:17:16;1.50;96.40
32107;DHT22;18622;51.998;10.440;2022-11-20T19:19:44;1.50;96.40
32107;DHT22;18622;51.998;10.440;2022-11-20T19:22:12;1.50;96.40
32107;DHT22;18622;51.998;10.440;2022-11-20T19:24:40;1.60;96.40
32107;DHT22;18622;51.998;10.440;2022-11-20T19:27:08;1.60;96.30
32107;DHT22;18622;51.998;10.440;2022-11-20T19:29:35;1.60;96.30
32107;DHT22;18622;51.998;10.440;2022-11-20T19:32:04;1.60;96.50
32107;DHT22;18622;51.998;10.440;2022-11-20T19:34:31;1.60;96.30
32107;DHT22;18622;51.998;10.440;2022-11-20T19:36:59;1.60;96.30
32107;DHT22;18622;51.998;10.440;2022-11-20T19:39:27;1.70;96.50
32107;DHT22;18622;51.998;10.440;2022-11-20T19:41:55;1.70;96.50
32107;DHT22;18622;51.998;10.440;2022-11-20T19:44:23;1.80;96.40
32107;DHT22;18622;51.998;10.440;2022-11-20T19:46:51;1.80;96.40
32107;DHT22;18622;51.998;10.440;2022-11-20T19:49:19;1.80;96.40
32107;DHT22;18622;51.998;10.440;2022-11-20T19:51:48;1.80;96.50
32107;DHT22;18622;51.998;10.440;2022-11-20T19:54:16;1.80;96.50
32107;DHT22;18622;51.998;10.440;2022-11-20T19:56:44;1.80;96.50
32107;DHT22;18622;51.998;10.440;2022-11-20T19:59:14;1.80;96.70
32107;DHT22;18622;51.998;10.440;2022-11-20T20:01:42;1.90;96.80
32107;DHT22;18622;51.998;10.440;2022-11-20T20:04:10;1.90;96.80
32107;DHT22;18622;51.998;10.440;2022-11-20T20:06:38;2.00;96.80
32107;DHT22;18622;51.998;10.440;2022-11-20T20:09:09;2.00;96.90
32107;DHT22;18622;51.998;10.440;2022-11-20T20:11:38;2.00;96.90
32107;DHT22;18622;51.998;10.440;2022-11-20T20:14:07;2.00;96.90
32107;DHT22;18622;51.998;10.440;2022-11-20T20:16:36;2.00;97.00
32107;DHT22;18622;51.998;10.440;2022-11-20T20:19:04;2.00;97.10
32107;DHT22;18622;51.998;10.440;2022-11-20T20:21:33;2.00;97.20
32107;DHT22;18622;51.998;10.440;2022-11-20T20:24:02;2.10;97.20
32107;DHT22;18622;51.998;10.440;2022-11-20T20:26:31;2.20;97.20
32107;DHT22;18622;51.998;10.440;2022-11-20T20:29:00;2.20;97.10
32107;DHT22;18622;51.998;10.440;2022-11-20T20:31:29;2.20;97.00
32107;DHT22;18622;51.998;10.440;2022-11-20T20:33:57;2.20;96.90
32107;DHT22;18622;51.998;10.440;2022-11-20T20:36:25;2.10;97.00
32107;DHT22;18622;51.998;10.440;2022-11-20T20:38:54;2.10;97.10
32107;DHT22;18622;51.998;10.440;2022-11-20T20:41:22;2.20;97.10
32107;DHT22;18622;51.998;10.440;2022-11-20T20:43:50;2.20;97.00
32107;DHT22;18622;51.998;10.440;2022-11-20T20:46:36;2.20;96.90
32107;DHT22;18622;51.998;10.440;2022-11-20T20:49:04;2.10;96.90
32107;DHT22;18622;51.998;10.440;2022-11-20T20:51:33;2.20;97.00
32107;DHT22;18622;51.998;10.440;2022-11-20T20:54:00;2.10;97.00
32107;DHT22;18622;51.998;10.440;2022-11-20T20:56:28;2.20;97.10
32107;DHT22;18622;51.998;10.440;2022-11-20T20:58:56;2.20;97.40
32107;DHT22;18622;51.998;10.440;2022-11-20T21:01:24;2.20;97.10
32107;DHT22;18622;51.998;10.440;2022-11-20T21:03:54;2.30;97.10
32107;DHT22;18622;51.998;10.440;2022-11-20T21:06:22;2.30;97.10
32107;DHT22;18622;51.998;10.440;2022-11-20T21:08:50;2.30;97.00
32107;DHT22;18622;51.998;10.440;2022-11-20T21:11:19;2.40;97.00
32107;DHT22;18622;51.998;10.440;2022-11-20T21:13:47;2.40;97.10
32107;DHT22;18622;51.998;10.440;2022-11-20T21:16:16;2.40;97.20
32107;DHT22;18622;51.998;10.440;2022-11-20T21:18:44;2.40;97.30
32107;DHT22;18622;51.998;10.440;2022-11-20T21:21:13;2.50;97.40
32107;DHT22;18622;51.998;10.440;2022-11-20T21:23:55;2.50;97.40
32107;DHT22;18622;51.998;10.440;2022-11-20T21:26:23;2.50;97.20
32107;DHT22;18622;51.998;10.440;2022-11-20T21:28:50;2.40;97.10
32107;DHT22;18622;51.998;10.440;2022-11-20T21:31:20;2.50;97.10
32107;DHT22;18622;51.998;10.440;2022-11-20T21:33:50;2.50;97.20
32107;DHT22;18622;51.998;10.440;2022-11-20T21:36:22;2.50;97.20
32107;DHT22;18622;51.998;10.440;2022-11-20T21:38:51;2.50;97.20
32107;DHT22;18622;51.998;10.440;2022-11-20T21:41:22;2.50;97.10
32107;DHT22;18622;51.998;10.440;2022-11-20T21:43:50;2.50;97.20
32107;DHT22;18622;51.998;10.440;2022-11-20T21:46:18;2.50;97.20
32107;DHT22;18622;51.998;10.440;2022-11-20T21:48:46;2.50;97.10
32107;DHT22;18622;51.998;10.440;2022-11-20T21:51:18;2.50;97.20
32107;DHT22;18622;51.998;10.440;2022-11-20T21:53:47;2.50;97.30
32107;DHT22;18622;51.998;10.440;2022-11-20T21:56:17;2.50;97.30
32107;DHT22;18622;51.998;10.440;2022-11-20T21:58:45;2.50;97.40
32107;DHT22;18622;51.998;10.440;2022-11-20T22:01:17;2.50;97.40
32107;DHT22;18622;51.998;10.440;2022-11-20T22:03:49;2.50;97.50
32107;DHT22;18622;51.998;10.440;2022-11-20T22:06:19;2.40;97.40
32107;DHT22;18622;51.998;10.440;2022-11-20T22:08:47;2.50;97.50
32107;DHT22;18622;51.998;10.440;2022-11-20T22:11:17;2.40;97.50
32107;DHT22;18622;51.998;10.440;2022-11-20T22:13:45;2.30;97.50
32107;DHT22;18622;51.998;10.440;2022-11-20T22:16:33;2.30;97.50
32107;DHT22;18622;51.998;10.440;2022-11-20T22:19:00;2.30;97.70
32107;DHT22;18622;51.998;10.440;2022-11-20T22:21:29;2.30;97.50
32107;DHT22;18622;51.998;10.440;2022-11-20T22:23:57;2.30;97.70
32107;DHT22;18622;51.998;10.440;2022-11-20T22:26:28;2.30;97.80
32107;DHT22;18622;51.998;10.440;2022-11-20T22:28:57;2.40;97.70
32107;DHT22;18622;51.998;10.440;2022-11-20T22:31:27;2.40;97.60
32107;DHT22;18622;51.998;10.440;2022-11-20T22:33:56;2.40;97.60
32107;DHT22;18622;51.998;10.440;2022-11-20T22:36:26;2.50;97.70
32107;DHT22;18622;51.998;10.440;2022-11-20T22:38:57;2.50;97.80
32107;DHT22;18622;51.998;10.440;2022-11-20T22:41:26;2.50;97.80
32107;DHT22;18622;51.998;10.440;2022-11-20T22:43:56;2.50;97.80
